Akvile — LYJM — position and weather

sailwx.info

Track history (hours):
 
Tides and Currents Weather Stations Pressure Air Temp Water Temp Dewpoint Dewpoint Depression Visibility Wind Speed Wind Dir Waves Ship Positions

Akvile

Last reported at 2015-Apr-18 06:33 UTC. Time now 2015-Apr-18 07:16 UTC.
Position N 36°15' E 013°19'.

Length 103 m; draft 4.6 m.

Type: Ship. MMSI: 277073000.

Date/timePositionNaut miles runAvg speedWind from/ knotsBaromVisibWave heightAir tempDewpointWater temp
2015-Apr-18 06:33N 36°15' E 013°19'1010.0
2015-Apr-18 05:33N 36°13' E 013°07'10 9.8
2015-Apr-18 04:33N 36°11' E 012°55'10 9.8
2015-Apr-18 03:33N 36°09' E 012°43'10 9.8
2015-Apr-18 02:33N 36°07' E 012°31'10 9.9
2015-Apr-18 01:33N 36°06' E 012°19'10 9.7
2015-Apr-18 00:34N 36°03' E 012°07'10 9.9
2015-Apr-17 23:33N 36°00' E 011°55'1010.3
2015-Apr-17 22:33N 35°58' E 011°43'10 9.8
2015-Apr-17 21:33N 35°57' E 011°31'10 9.8
2015-Apr-17 20:33N 35°55' E 011°19'10 9.5
2015-Apr-17 19:33N 35°54' E 011°08'10 9.6
2015-Apr-17 18:33N 35°52' E 010°56'10 9.5
2015-Apr-17 17:33N 35°50' E 010°44'5 3.6
2015-Apr-17 16:17N 35°50' E 010°39'0 0.0
2015-Apr-17 15:32N 35°50' E 010°39'0 0.0
2015-Apr-17 14:32N 35°50' E 010°39'0 0.0
2015-Apr-17 13:32N 35°50' E 010°39'0 0.0
2015-Apr-17 12:26N 35°50' E 010°39'0 0.0
2015-Apr-17 11:11N 35°50' E 010°39'0 0.0
2015-Apr-16 20:26N 35°50' E 010°39'0 0.0
2015-Apr-16 19:32N 35°50' E 010°39'0 0.0
2015-Apr-16 18:26N 35°50' E 010°39'0 0.0
2015-Apr-16 17:32N 35°50' E 010°39'0 0.0
2015-Apr-16 16:32N 35°50' E 010°39'0 0.0
2015-Apr-16 15:32N 35°50' E 010°39'0 0.0
2015-Apr-16 10:14N 35°50' E 010°39'26 0.6
2015-Apr-14 18:23N 35°51' E 011°10'910.7
2015-Apr-14 17:33N 35°43' E 011°16'1211.0
2015-Apr-14 16:28N 35°33' E 011°23'1010.8
2015-Apr-14 15:33N 35°24' E 011°29'18 0.5
2015-Apr-13 03:33N 35°38' E 011°44'1511.3
2015-Apr-13 02:12N 35°53' E 011°41'1111.3
2015-Apr-13 01:13N 36°04' E 011°39'1011.8
2015-Apr-13 00:23N 36°13' E 011°37'1011.8
2015-Apr-12 23:34N 36°23' E 011°35'1311.8
2015-Apr-12 22:30N 36°35' E 011°33'40311.1
2015-Apr-11 10:12N 43°09' E 009°38'710.3
2015-Apr-11 09:34N 43°15' E 009°39'1010.4
2015-Apr-11 08:33N 43°26' E 009°42'1111.1
2015-Apr-11 07:34N 43°36' E 009°46'1111.3
2015-Apr-11 06:33N 43°47' E 009°49'1110.8
2015-Apr-11 05:34N 43°58' E 009°51'8 7.9
2015-Apr-11 04:31N 44°06' E 009°51'0 0.0
2015-Apr-11 03:31N 44°06' E 009°51'0 0.0
2015-Apr-11 02:31N 44°06' E 009°51'0 0.0
2015-Apr-11 01:31N 44°06' E 009°51'0 0.0
2015-Apr-11 00:31N 44°06' E 009°51'0 0.0
2015-Apr-10 23:28N 44°06' E 009°51'0 0.0
2015-Apr-10 22:31N 44°06' E 009°51'0 0.0
2015-Apr-10 21:31N 44°06' E 009°51'0 0.0
2015-Apr-10 20:31N 44°06' E 009°51'0 0.0
2015-Apr-10 19:31N 44°06' E 009°51'0 0.0
2015-Apr-10 18:31N 44°06' E 009°51'1 0.8
2015-Apr-10 17:33N 44°07' E 009°50'0 0.0
2015-Apr-10 16:33N 44°07' E 009°50'0 0.0
2015-Apr-10 15:33N 44°07' E 009°50'0 0.0
2015-Apr-10 14:33N 44°07' E 009°50'0 0.0
2015-Apr-10 13:30N 44°07' E 009°50'0 0.0
2015-Apr-10 12:33N 44°07' E 009°50'0 0.0
2015-Apr-10 09:30N 44°07' E 009°50'0 0.0
2015-Apr-10 08:33N 44°07' E 009°50'0 0.0
2015-Apr-10 07:30N 44°07' E 009°50'0 0.0
2015-Apr-10 06:33N 44°07' E 009°50'0 0.0
2015-Apr-10 05:33N 44°07' E 009°50'0 0.0
2015-Apr-10 04:33N 44°07' E 009°50'0 0.0
2015-Apr-10 03:33N 44°07' E 009°50'0 0.0
2015-Apr-10 02:27N 44°07' E 009°50'0 0.0
2015-Apr-10 01:33N 44°07' E 009°50'0 0.0
2015-Apr-10 00:33N 44°07' E 009°50'0 0.0
2015-Apr-09 23:33N 44°07' E 009°50'0 0.0
2015-Apr-09 22:33N 44°07' E 009°50'0 0.0
2015-Apr-09 21:33N 44°07' E 009°50'0 0.0
2015-Apr-09 20:33N 44°07' E 009°50'0 0.0
2015-Apr-09 19:33N 44°07' E 009°50'0 0.0
2015-Apr-09 18:33N 44°07' E 009°50'1 1.0
2015-Apr-09 17:34N 44°06' E 009°50'9 9.3
2015-Apr-09 16:33N 43°57' E 009°53'1111.4
2015-Apr-09 15:34N 43°45' E 009°50'1111.4
2015-Apr-09 14:34N 43°34' E 009°47'1111.2
2015-Apr-09 13:34N 43°23' E 009°44'1211.7
2015-Apr-09 12:33N 43°12' E 009°40'1211.6
2015-Apr-09 11:31N 42°60' E 009°38'1111.8
2015-Apr-09 10:34N 42°49' E 009°40'1612.0
2015-Apr-09 09:13N 42°33' E 009°43'812.3
2015-Apr-09 08:33N 42°25' E 009°45'1212.2
2015-Apr-09 07:34N 42°13' E 009°48'  
Track history (hours):
 
Tides and Currents Weather Stations Pressure Air Temp Water Temp Dewpoint Dewpoint Depression Visibility Wind Speed Wind Dir Waves Ship Positions

Akvile

Last reported at 2015-Apr-18 06:33 UTC. Time now 2015-Apr-18 07:16 UTC.
Position N 36°15' E 013°19'.

Length 103 m; draft 4.6 m.

Type: Ship. MMSI: 277073000.

Date/timePositionNaut miles runAvg speedWind from/ knotsBaromVisibWave heightAir tempDewpointWater temp
2015-Apr-18 06:33N 36°15' E 013°19'1010.0
2015-Apr-18 05:33N 36°13' E 013°07'10 9.8
2015-Apr-18 04:33N 36°11' E 012°55'10 9.8
2015-Apr-18 03:33N 36°09' E 012°43'10 9.8
2015-Apr-18 02:33N 36°07' E 012°31'10 9.9
2015-Apr-18 01:33N 36°06' E 012°19'10 9.7
2015-Apr-18 00:34N 36°03' E 012°07'10 9.9
2015-Apr-17 23:33N 36°00' E 011°55'1010.3
2015-Apr-17 22:33N 35°58' E 011°43'10 9.8
2015-Apr-17 21:33N 35°57' E 011°31'10 9.8
2015-Apr-17 20:33N 35°55' E 011°19'10 9.5
2015-Apr-17 19:33N 35°54' E 011°08'10 9.6
2015-Apr-17 18:33N 35°52' E 010°56'10 9.5
2015-Apr-17 17:33N 35°50' E 010°44'5 3.6
2015-Apr-17 16:17N 35°50' E 010°39'0 0.0
2015-Apr-17 15:32N 35°50' E 010°39'0 0.0
2015-Apr-17 14:32N 35°50' E 010°39'0 0.0
2015-Apr-17 13:32N 35°50' E 010°39'0 0.0
2015-Apr-17 12:26N 35°50' E 010°39'0 0.0
2015-Apr-17 11:11N 35°50' E 010°39'0 0.0
2015-Apr-16 20:26N 35°50' E 010°39'0 0.0
2015-Apr-16 19:32N 35°50' E 010°39'0 0.0
2015-Apr-16 18:26N 35°50' E 010°39'0 0.0
2015-Apr-16 17:32N 35°50' E 010°39'0 0.0
2015-Apr-16 16:32N 35°50' E 010°39'0 0.0
2015-Apr-16 15:32N 35°50' E 010°39'0 0.0
2015-Apr-16 10:14N 35°50' E 010°39'26 0.6
2015-Apr-14 18:23N 35°51' E 011°10'910.7
2015-Apr-14 17:33N 35°43' E 011°16'1211.0
2015-Apr-14 16:28N 35°33' E 011°23'1010.8
2015-Apr-14 15:33N 35°24' E 011°29'18 0.5
2015-Apr-13 03:33N 35°38' E 011°44'1511.3
2015-Apr-13 02:12N 35°53' E 011°41'1111.3
2015-Apr-13 01:13N 36°04' E 011°39'1011.8
2015-Apr-13 00:23N 36°13' E 011°37'1011.8
2015-Apr-12 23:34N 36°23' E 011°35'1311.8
2015-Apr-12 22:30N 36°35' E 011°33'40311.1
2015-Apr-11 10:12N 43°09' E 009°38'710.3
2015-Apr-11 09:34N 43°15' E 009°39'1010.4
2015-Apr-11 08:33N 43°26' E 009°42'1111.1
2015-Apr-11 07:34N 43°36' E 009°46'1111.3
2015-Apr-11 06:33N 43°47' E 009°49'1110.8
2015-Apr-11 05:34N 43°58' E 009°51'8 7.9
2015-Apr-11 04:31N 44°06' E 009°51'0 0.0
2015-Apr-11 03:31N 44°06' E 009°51'0 0.0
2015-Apr-11 02:31N 44°06' E 009°51'0 0.0
2015-Apr-11 01:31N 44°06' E 009°51'0 0.0
2015-Apr-11 00:31N 44°06' E 009°51'0 0.0
2015-Apr-10 23:28N 44°06' E 009°51'0 0.0
2015-Apr-10 22:31N 44°06' E 009°51'0 0.0
2015-Apr-10 21:31N 44°06' E 009°51'0 0.0
2015-Apr-10 20:31N 44°06' E 009°51'0 0.0
2015-Apr-10 19:31N 44°06' E 009°51'0 0.0
2015-Apr-10 18:31N 44°06' E 009°51'1 0.8
2015-Apr-10 17:33N 44°07' E 009°50'0 0.0
2015-Apr-10 16:33N 44°07' E 009°50'0 0.0
2015-Apr-10 15:33N 44°07' E 009°50'0 0.0
2015-Apr-10 14:33N 44°07' E 009°50'0 0.0
2015-Apr-10 13:30N 44°07' E 009°50'0 0.0
2015-Apr-10 12:33N 44°07' E 009°50'0 0.0
2015-Apr-10 09:30N 44°07' E 009°50'0 0.0
2015-Apr-10 08:33N 44°07' E 009°50'0 0.0
2015-Apr-10 07:30N 44°07' E 009°50'0 0.0
2015-Apr-10 06:33N 44°07' E 009°50'0 0.0
2015-Apr-10 05:33N 44°07' E 009°50'0 0.0
2015-Apr-10 04:33N 44°07' E 009°50'0 0.0
2015-Apr-10 03:33N 44°07' E 009°50'0 0.0
2015-Apr-10 02:27N 44°07' E 009°50'0 0.0
2015-Apr-10 01:33N 44°07' E 009°50'0 0.0
2015-Apr-10 00:33N 44°07' E 009°50'0 0.0
2015-Apr-09 23:33N 44°07' E 009°50'0 0.0
2015-Apr-09 22:33N 44°07' E 009°50'0 0.0
2015-Apr-09 21:33N 44°07' E 009°50'0 0.0
2015-Apr-09 20:33N 44°07' E 009°50'0 0.0
2015-Apr-09 19:33N 44°07' E 009°50'0 0.0
2015-Apr-09 18:33N 44°07' E 009°50'1 1.0
2015-Apr-09 17:34N 44°06' E 009°50'9 9.3
2015-Apr-09 16:33N 43°57' E 009°53'1111.4
2015-Apr-09 15:34N 43°45' E 009°50'1111.4
2015-Apr-09 14:34N 43°34' E 009°47'1111.2
2015-Apr-09 13:34N 43°23' E 009°44'1211.7
2015-Apr-09 12:33N 43°12' E 009°40'1211.6
2015-Apr-09 11:31N 42°60' E 009°38'1111.8
2015-Apr-09 10:34N 42°49' E 009°40'1612.0
2015-Apr-09 09:13N 42°33' E 009°43'812.3
2015-Apr-09 08:33N 42°25' E 009°45'1212.2
2015-Apr-09 07:34N 42°13' E 009°48'  

Dump ship's entire track history